createdAt,value
2023-04-14T00:02:14.022Z,10.40
2023-04-14T00:04:41.175Z,9.80
2023-04-14T00:07:16.050Z,9.60
2023-04-14T00:09:41.423Z,9.60
2023-04-14T00:12:12.816Z,9.80
2023-04-14T00:14:36.252Z,10.20
2023-04-14T00:17:20.494Z,10.00
2023-04-14T00:19:46.578Z,9.80
2023-04-14T00:22:22.111Z,10.00
2023-04-14T00:24:45.837Z,9.30
2023-04-14T00:27:09.482Z,9.10
2023-04-14T00:29:38.222Z,9.80
2023-04-14T00:32:01.845Z,9.20
2023-04-14T00:34:26.953Z,9.10
2023-04-14T00:36:54.258Z,8.30
2023-04-14T00:39:18.111Z,8.10
2023-04-14T00:41:44.857Z,8.20
2023-04-14T00:44:16.319Z,8.10
2023-04-14T00:46:43.344Z,7.60
2023-04-14T00:49:07.373Z,7.40
2023-04-14T00:51:37.049Z,7.30
2023-04-14T00:54:10.865Z,7.50
2023-04-14T00:56:57.460Z,7.50
2023-04-14T00:59:32.409Z,8.00
2023-04-14T01:02:00.584Z,8.20
2023-04-14T01:04:53.496Z,7.80
2023-04-14T01:07:19.097Z,8.10
2023-04-14T01:09:45.492Z,7.50
2023-04-14T01:12:48.972Z,7.90
2023-04-14T01:15:22.612Z,8.70
2023-04-14T01:17:54.487Z,7.70
2023-04-14T01:20:26.863Z,8.50
2023-04-14T01:22:58.462Z,8.50
2023-04-14T01:26:06.404Z,8.60
2023-04-14T01:28:56.231Z,8.80
2023-04-14T01:31:44.784Z,9.00
2023-04-14T01:34:14.028Z,8.40
2023-04-14T01:37:02.216Z,8.30
2023-04-14T01:39:42.416Z,9.00
2023-04-14T01:42:32.832Z,9.50
2023-04-14T01:45:02.272Z,9.00
2023-04-14T01:47:29.409Z,9.20
2023-04-14T01:50:06.847Z,9.60
2023-04-14T01:52:54.021Z,8.50
2023-04-14T01:55:19.977Z,8.30
2023-04-14T01:57:46.065Z,9.00
2023-04-14T02:00:13.032Z,8.60
2023-04-14T02:02:42.230Z,8.80
2023-04-14T02:05:09.643Z,8.80
2023-04-14T02:07:34.818Z,8.90
2023-04-14T02:10:03.226Z,9.50
2023-04-14T02:12:31.618Z,9.20
2023-04-14T02:15:00.754Z,9.00
2023-04-14T02:17:26.624Z,9.00
2023-04-14T02:19:51.163Z,9.50
2023-04-14T02:22:15.746Z,9.20
2023-04-14T02:24:51.011Z,8.80
2023-04-14T02:27:18.209Z,9.90
2023-04-14T02:29:48.430Z,11.40
2023-04-14T02:32:21.475Z,12.80
2023-04-14T02:34:53.594Z,12.60
2023-04-14T02:37:35.871Z,13.70
2023-04-14T02:40:24.576Z,13.60
2023-04-14T02:43:02.893Z,14.10
2023-04-14T02:45:30.307Z,13.80
2023-04-14T02:47:58.154Z,14.60
2023-04-14T02:50:27.003Z,14.50
2023-04-14T02:53:00.874Z,15.10
2023-04-14T02:55:34.698Z,14.70
2023-04-14T02:57:59.494Z,14.30
2023-04-14T03:00:24.519Z,14.80
2023-04-14T03:02:51.608Z,14.90
2023-04-14T03:05:18.687Z,15.00
2023-04-14T03:07:53.716Z,15.60
2023-04-14T03:10:27.567Z,15.40
2023-04-14T03:12:54.110Z,15.00
2023-04-14T03:15:22.157Z,15.90
2023-04-14T03:17:53.455Z,16.30
2023-04-14T03:20:21.185Z,17.00
2023-04-14T03:23:00.961Z,17.30
2023-04-14T03:25:28.900Z,16.90
2023-04-14T03:27:55.346Z,16.80
2023-04-14T03:30:24.657Z,16.60
2023-04-14T03:32:52.008Z,16.00
2023-04-14T03:35:37.423Z,16.90
2023-04-14T03:38:08.496Z,16.90
2023-04-14T03:40:37.820Z,16.40
2023-04-14T03:43:03.387Z,16.40
2023-04-14T03:45:48.860Z,17.00
2023-04-14T03:48:30.611Z,16.30
2023-04-14T03:51:17.119Z,17.20
2023-04-14T03:53:47.426Z,16.30
2023-04-14T03:56:15.445Z,16.90
2023-04-14T03:58:55.859Z,16.40
2023-04-14T04:01:28.298Z,16.60
2023-04-14T04:04:05.723Z,16.30
2023-04-14T04:06:49.578Z,16.30
2023-04-14T04:09:15.336Z,16.60
2023-04-14T04:11:43.405Z,16.60
2023-04-14T04:14:08.269Z,15.90
2023-04-14T04:16:38.238Z,16.60
2023-04-14T04:21:31.858Z,17.30
2023-04-14T04:26:39.508Z,18.80
2023-04-14T04:29:04.017Z,19.70
2023-04-14T04:31:33.084Z,20.70
2023-04-14T04:34:08.428Z,20.90
2023-04-14T04:36:35.930Z,19.10
2023-04-14T04:39:04.066Z,20.00
2023-04-14T04:41:31.033Z,21.00
2023-04-14T04:43:58.478Z,19.80
2023-04-14T04:46:48.313Z,20.70
2023-04-14T04:49:19.914Z,20.90
2023-04-14T04:51:49.597Z,20.50
2023-04-14T04:54:33.697Z,20.60
2023-04-14T04:57:00.588Z,21.10
2023-04-14T04:59:37.399Z,22.10
2023-04-14T05:02:02.107Z,21.70
2023-04-14T05:04:28.285Z,22.60
2023-04-14T05:06:51.880Z,21.00
2023-04-14T05:09:21.089Z,21.40
2023-04-14T05:11:50.382Z,21.20
2023-04-14T05:14:14.031Z,20.10
2023-04-14T05:16:37.631Z,19.00
2023-04-14T05:19:01.441Z,18.20
2023-04-14T05:21:25.243Z,19.40
2023-04-14T05:23:51.505Z,18.90
2023-04-14T05:28:57.961Z,18.80
2023-04-14T05:31:24.758Z,18.80
2023-04-14T05:33:52.948Z,20.30
2023-04-14T05:36:26.801Z,19.50
2023-04-14T05:38:53.649Z,18.60
2023-04-14T05:41:17.290Z,19.20
2023-04-14T05:43:52.122Z,19.60
2023-04-14T05:46:19.067Z,20.50
2023-04-14T05:48:42.638Z,20.10
2023-04-14T05:51:08.467Z,19.00
2023-04-14T05:55:59.846Z,19.30
2023-04-14T05:58:43.517Z,19.60
2023-04-14T06:01:27.511Z,19.10
2023-04-14T06:04:04.214Z,19.60
2023-04-14T06:06:28.090Z,19.40
2023-04-14T06:08:54.771Z,17.90
2023-04-14T06:11:18.225Z,17.90
2023-04-14T06:13:52.048Z,17.10
2023-04-14T06:16:15.774Z,17.60
2023-04-14T06:18:39.644Z,16.50
2023-04-14T06:21:07.163Z,16.90
2023-04-14T06:23:33.215Z,16.80
2023-04-14T06:25:57.373Z,16.60
2023-04-14T06:28:23.459Z,15.90
2023-04-14T06:30:47.464Z,13.90
2023-04-14T06:33:11.072Z,14.80
2023-04-14T06:35:35.082Z,13.20
2023-04-14T06:37:58.484Z,13.00
2023-04-14T06:40:22.215Z,11.40
2023-04-14T06:42:48.634Z,11.80
2023-04-14T06:45:12.450Z,11.20
2023-04-14T06:47:35.990Z,11.20
2023-04-14T06:49:59.782Z,12.10
2023-04-14T06:52:23.566Z,11.40
2023-04-14T06:54:47.103Z,10.90
2023-04-14T06:57:10.761Z,10.10
2023-04-14T06:59:34.485Z,10.00
2023-04-14T07:01:58.193Z,9.50
2023-04-14T07:04:22.851Z,9.70
2023-04-14T07:06:46.581Z,10.30
2023-04-14T07:09:09.952Z,9.20
2023-04-14T07:11:33.816Z,8.80
2023-04-14T07:13:57.518Z,9.10
2023-04-14T07:16:21.366Z,8.70
2023-04-14T07:18:44.981Z,8.40
2023-04-14T07:21:08.444Z,10.40
2023-04-14T07:23:33.021Z,8.60
2023-04-14T07:25:57.988Z,7.50
2023-04-14T07:28:22.581Z,7.30
2023-04-14T07:30:46.541Z,8.00
2023-04-14T07:33:10.228Z,8.20
2023-04-14T07:35:33.907Z,7.40
2023-04-14T07:37:57.638Z,7.80
2023-04-14T07:40:21.342Z,6.80
2023-04-14T07:42:46.211Z,6.70
2023-04-14T07:45:11.698Z,6.30
2023-04-14T07:47:35.454Z,5.80
2023-04-14T07:49:59.200Z,6.20
2023-04-14T07:52:22.739Z,5.20
2023-04-14T07:54:46.256Z,5.60
2023-04-14T07:57:10.230Z,6.00
2023-04-14T07:59:33.726Z,5.10
2023-04-14T08:01:57.298Z,8.80
2023-04-14T08:04:21.497Z,6.80
2023-04-14T08:06:44.945Z,4.90
2023-04-14T08:09:08.406Z,4.90
2023-04-14T08:11:31.985Z,5.00
2023-04-14T08:13:55.430Z,4.90
2023-04-14T08:16:19.283Z,4.20
2023-04-14T08:18:42.973Z,4.30
2023-04-14T08:21:06.962Z,4.40
2023-04-14T08:23:30.746Z,4.20
2023-04-14T08:25:54.181Z,4.40
2023-04-14T08:28:17.791Z,4.10
2023-04-14T08:30:41.432Z,4.30
2023-04-14T08:33:05.228Z,4.10
2023-04-14T08:35:37.400Z,4.30
2023-04-14T08:38:04.691Z,3.90
2023-04-14T08:40:35.700Z,4.30
2023-04-14T08:42:59.113Z,4.40
2023-04-14T08:45:23.769Z,4.20
2023-04-14T08:47:51.161Z,3.90
2023-04-14T08:50:18.302Z,4.00
2023-04-14T08:52:43.105Z,4.10
2023-04-14T08:55:10.797Z,4.10
2023-04-14T08:57:35.771Z,3.90
2023-04-14T08:59:59.482Z,3.80
2023-04-14T09:02:23.647Z,4.60
2023-04-14T09:04:49.179Z,4.30
2023-04-14T09:07:13.519Z,4.30
2023-04-14T09:09:37.293Z,3.80
2023-04-14T09:12:02.565Z,4.50
2023-04-14T09:14:27.272Z,4.30
2023-04-14T09:16:53.253Z,4.60
2023-04-14T09:19:17.134Z,4.30
2023-04-14T09:21:52.578Z,4.10
2023-04-14T09:24:23.023Z,3.60
2023-04-14T09:26:46.536Z,4.10
2023-04-14T09:29:09.877Z,5.00
2023-04-14T09:31:34.154Z,5.00
2023-04-14T09:33:58.216Z,4.80
2023-04-14T09:36:22.945Z,4.60
2023-04-14T09:38:47.020Z,4.20
2023-04-14T09:41:16.135Z,4.40
2023-04-14T09:43:40.094Z,5.00
2023-04-14T09:46:07.842Z,5.00
2023-04-14T09:48:31.867Z,4.30
2023-04-14T09:51:00.130Z,4.40
2023-04-14T09:53:27.109Z,4.50
2023-04-14T09:55:51.927Z,4.50
2023-04-14T09:58:21.363Z,5.00
2023-04-14T10:00:46.146Z,4.80
2023-04-14T10:03:09.707Z,4.60
2023-04-14T10:05:34.698Z,4.80
2023-04-14T10:08:03.247Z,4.70
2023-04-14T10:10:27.301Z,4.70
2023-04-14T10:12:54.008Z,4.80
2023-04-14T10:15:17.881Z,5.20
2023-04-14T10:17:42.045Z,4.80
2023-04-14T10:20:08.244Z,5.30
2023-04-14T10:22:33.089Z,5.40
2023-04-14T10:24:58.280Z,5.70
2023-04-14T10:27:22.478Z,5.30
2023-04-14T10:29:46.616Z,5.60
2023-04-14T10:32:13.415Z,5.00
2023-04-14T10:34:41.970Z,4.70
2023-04-14T10:37:16.366Z,5.30
2023-04-14T10:39:40.337Z,5.00
2023-04-14T10:42:03.943Z,5.40
2023-04-14T10:44:31.111Z,4.90
2023-04-14T10:46:55.745Z,5.40
2023-04-14T10:49:22.076Z,5.30
2023-04-14T10:54:18.284Z,5.40
2023-04-14T10:56:41.832Z,5.60
2023-04-14T10:59:06.389Z,5.40
2023-04-14T11:01:31.544Z,5.10
2023-04-14T11:03:55.705Z,5.50
2023-04-14T11:06:52.654Z,5.60
2023-04-14T11:09:24.557Z,5.10
2023-04-14T11:11:48.504Z,6.30
2023-04-14T11:14:11.965Z,5.90
2023-04-14T11:16:42.364Z,6.00
2023-04-14T11:19:14.745Z,5.40
2023-04-14T11:21:49.677Z,5.20
2023-04-14T11:24:13.367Z,5.10
2023-04-14T11:26:36.870Z,4.50
2023-04-14T11:29:07.952Z,5.20
2023-04-14T11:31:31.526Z,5.10
2023-04-14T11:33:55.994Z,5.40
2023-04-14T11:36:19.351Z,5.20
2023-04-14T11:38:43.361Z,4.70
2023-04-14T11:41:07.377Z,4.70
2023-04-14T11:43:30.906Z,4.50
2023-04-14T11:45:54.832Z,4.40
2023-04-14T11:48:20.120Z,4.10
2023-04-14T11:50:45.428Z,4.80
2023-04-14T11:53:09.979Z,4.10
2023-04-14T11:55:34.129Z,3.60
2023-04-14T11:57:57.741Z,4.60
2023-04-14T12:00:21.872Z,3.70
2023-04-14T12:02:46.285Z,4.10
2023-04-14T12:05:11.539Z,4.30
2023-04-14T12:07:35.610Z,4.00
2023-04-14T12:09:59.334Z,4.40
2023-04-14T12:12:23.214Z,4.10
2023-04-14T12:14:48.646Z,4.30
2023-04-14T12:17:14.680Z,4.10
2023-04-14T12:19:38.383Z,4.30
2023-04-14T12:22:01.897Z,3.50
2023-04-14T12:24:32.615Z,4.20
2023-04-14T12:26:57.124Z,4.00
2023-04-14T12:29:23.527Z,4.00
2023-04-14T12:31:46.876Z,3.90
2023-04-14T12:34:14.252Z,3.10
2023-04-14T12:36:49.684Z,3.20
2023-04-14T12:39:13.990Z,3.80
2023-04-14T12:41:41.231Z,3.00
2023-04-14T12:44:15.491Z,3.00
2023-04-14T12:46:46.630Z,3.20
2023-04-14T12:49:29.875Z,2.70
2023-04-14T12:51:53.514Z,2.90
2023-04-14T12:54:17.006Z,2.40
2023-04-14T12:56:42.454Z,2.80
2023-04-14T12:59:06.208Z,2.80
2023-04-14T13:01:29.780Z,2.70
2023-04-14T13:03:54.832Z,2.50
2023-04-14T13:06:20.303Z,2.30
2023-04-14T13:08:44.480Z,2.40
2023-04-14T13:11:07.823Z,2.40
2023-04-14T13:13:31.431Z,2.80
2023-04-14T13:16:13.107Z,2.80
2023-04-14T13:18:39.138Z,3.00
2023-04-14T13:21:03.482Z,3.50
2023-04-14T13:23:26.877Z,3.20
2023-04-14T13:25:50.777Z,3.60
2023-04-14T13:28:14.491Z,3.50
2023-04-14T13:30:41.168Z,4.60
2023-04-14T13:33:04.845Z,3.80
2023-04-14T13:35:28.598Z,3.90
2023-04-14T13:37:52.000Z,3.70
2023-04-14T13:40:15.750Z,3.50
2023-04-14T13:42:39.158Z,3.60
2023-04-14T13:45:03.061Z,3.20
2023-04-14T13:47:27.894Z,3.40
2023-04-14T13:49:51.342Z,3.90
2023-04-14T13:52:15.095Z,3.50
2023-04-14T13:54:38.899Z,3.40
2023-04-14T13:57:02.879Z,3.50
2023-04-14T13:59:26.574Z,3.10
2023-04-14T14:01:50.281Z,3.40
2023-04-14T14:04:14.002Z,3.30
2023-04-14T14:06:37.643Z,3.00
2023-04-14T14:09:05.137Z,2.90
2023-04-14T14:11:29.426Z,3.30
2023-04-14T14:13:52.836Z,2.80
2023-04-14T14:16:29.454Z,3.80
2023-04-14T14:19:00.429Z,3.60
2023-04-14T14:21:24.643Z,3.50
2023-04-14T14:23:48.523Z,3.40
2023-04-14T14:26:13.340Z,3.90
2023-04-14T14:28:36.850Z,3.60
2023-04-14T14:31:00.308Z,3.40
2023-04-14T14:33:23.829Z,2.90
2023-04-14T14:35:47.738Z,3.20
2023-04-14T14:38:11.898Z,3.00
2023-04-14T14:40:35.882Z,3.10
2023-04-14T14:42:59.628Z,3.00
2023-04-14T14:45:30.348Z,3.70
2023-04-14T14:47:55.251Z,3.40
2023-04-14T14:50:18.981Z,3.50
2023-04-14T14:52:42.377Z,3.00
2023-04-14T14:55:08.067Z,3.80
2023-04-14T14:57:31.610Z,3.70
2023-04-14T15:00:07.177Z,3.10
2023-04-14T15:02:30.751Z,3.50
2023-04-14T15:04:54.974Z,3.40
2023-04-14T15:07:21.670Z,3.80
2023-04-14T15:09:47.419Z,3.90
2023-04-14T15:12:11.180Z,3.90
2023-04-14T15:14:35.281Z,3.90
2023-04-14T15:16:58.687Z,4.00
2023-04-14T15:19:22.986Z,4.10
2023-04-14T15:21:46.726Z,3.50
2023-04-14T15:24:10.338Z,3.60
2023-04-14T15:26:33.886Z,3.30
2023-04-14T15:28:57.560Z,3.70
2023-04-14T15:31:21.231Z,3.70
2023-04-14T15:33:45.721Z,3.90
2023-04-14T15:36:09.201Z,4.50
2023-04-14T15:38:32.674Z,5.30
2023-04-14T15:40:56.462Z,4.80
2023-04-14T15:43:19.912Z,5.30
2023-04-14T15:45:43.560Z,4.80
2023-04-14T15:48:07.270Z,5.10
2023-04-14T15:50:30.827Z,5.50
2023-04-14T15:52:55.198Z,5.30
2023-04-14T15:55:19.181Z,4.80
2023-04-14T15:57:42.744Z,5.50
2023-04-14T16:00:08.448Z,5.00
2023-04-14T16:02:38.227Z,5.50
2023-04-14T16:05:04.375Z,5.40
2023-04-14T16:07:28.656Z,4.80
2023-04-14T16:09:53.164Z,5.00
2023-04-14T16:12:16.551Z,5.10
2023-04-14T16:14:42.335Z,5.70
2023-04-14T16:17:06.008Z,5.20
2023-04-14T16:19:29.494Z,5.50
2023-04-14T16:21:54.188Z,4.70
2023-04-14T16:24:17.815Z,4.60
2023-04-14T16:26:42.300Z,4.60
2023-04-14T16:29:06.200Z,5.30
2023-04-14T16:31:30.512Z,4.80
2023-04-14T16:33:53.979Z,4.70
2023-04-14T16:36:18.440Z,4.40
2023-04-14T16:38:41.878Z,4.30
2023-04-14T16:41:05.601Z,4.40
2023-04-14T16:43:29.154Z,4.50
2023-04-14T16:45:52.733Z,3.90
2023-04-14T16:48:17.277Z,4.40
2023-04-14T16:50:42.126Z,4.40
2023-04-14T16:53:06.155Z,4.30
2023-04-14T16:55:29.933Z,4.10
2023-04-14T16:57:53.399Z,4.60
2023-04-14T17:00:18.337Z,4.90
2023-04-14T17:02:42.109Z,4.30
2023-04-14T17:05:09.508Z,4.80
2023-04-14T17:07:33.312Z,5.20
2023-04-14T17:09:57.064Z,5.10
2023-04-14T17:12:21.764Z,4.90
2023-04-14T17:14:45.681Z,4.30
2023-04-14T17:17:09.442Z,5.00
2023-04-14T17:19:33.633Z,4.90
2023-04-14T17:21:57.572Z,5.10
2023-04-14T17:24:20.908Z,5.00
2023-04-14T17:26:44.434Z,4.70
2023-04-14T17:29:08.715Z,5.00
2023-04-14T17:31:32.699Z,5.10
2023-04-14T17:33:57.035Z,6.10
2023-04-14T17:36:20.705Z,5.40
2023-04-14T17:38:45.395Z,5.40
2023-04-14T17:41:10.390Z,5.60
2023-04-14T17:43:37.545Z,5.60
2023-04-14T17:46:01.075Z,5.90
2023-04-14T17:48:25.129Z,6.40
2023-04-14T17:50:49.031Z,6.00
2023-04-14T17:53:16.518Z,6.70
2023-04-14T17:55:40.205Z,6.70
2023-04-14T17:58:04.469Z,6.40
2023-04-14T18:00:29.013Z,6.70
2023-04-14T18:02:53.274Z,7.20
2023-04-14T18:05:17.049Z,6.80
2023-04-14T18:07:42.129Z,7.30
2023-04-14T18:10:07.870Z,7.40
2023-04-14T18:12:40.036Z,7.50
2023-04-14T18:15:03.908Z,7.50
2023-04-14T18:17:28.377Z,7.00
2023-04-14T18:19:55.404Z,8.10
2023-04-14T18:22:18.824Z,7.20
2023-04-14T18:29:36.495Z,7.80
2023-04-14T18:32:00.075Z,7.20
2023-04-14T18:34:23.823Z,7.90
2023-04-14T18:36:51.824Z,7.10
2023-04-14T18:39:15.753Z,7.60
2023-04-14T18:41:39.643Z,7.50
2023-04-14T18:44:03.677Z,7.50
2023-04-14T18:46:27.143Z,7.80
2023-04-14T18:48:51.177Z,7.70
2023-04-14T18:51:15.424Z,8.00
2023-04-14T18:53:41.658Z,7.90
2023-04-14T18:56:09.248Z,8.10
2023-04-14T18:58:32.911Z,7.40
2023-04-14T19:00:56.758Z,7.70
2023-04-14T19:03:21.528Z,7.90
2023-04-14T19:05:46.114Z,7.40
2023-04-14T19:08:09.613Z,8.20
2023-04-14T19:10:33.481Z,8.40
2023-04-14T19:12:56.945Z,7.70
2023-04-14T19:15:20.712Z,8.20
2023-04-14T19:17:44.530Z,8.40
2023-04-14T19:20:09.842Z,8.10
2023-04-14T19:22:33.436Z,7.60
2023-04-14T19:24:57.242Z,8.10
2023-04-14T19:27:20.691Z,8.20
2023-04-14T19:29:49.241Z,8.50
2023-04-14T19:32:15.461Z,8.90
2023-04-14T19:34:38.873Z,7.30
2023-04-14T19:37:03.269Z,7.40
2023-04-14T19:39:26.943Z,7.60
2023-04-14T19:41:50.661Z,7.70
2023-04-14T19:44:14.501Z,8.00
2023-04-14T19:46:39.939Z,9.20
2023-04-14T19:49:03.983Z,8.00
2023-04-14T19:51:28.271Z,8.70
2023-04-14T19:53:52.292Z,7.90
2023-04-14T19:56:15.779Z,7.70
2023-04-14T19:58:39.739Z,8.10
2023-04-14T20:01:03.199Z,8.10
2023-04-14T20:03:27.917Z,8.00
2023-04-14T20:05:54.093Z,7.40
2023-04-14T20:08:17.658Z,8.70
2023-04-14T20:10:41.882Z,9.20
2023-04-14T20:13:05.348Z,8.50
2023-04-14T20:15:28.869Z,8.40
2023-04-14T20:17:52.488Z,8.40
2023-04-14T20:20:16.544Z,8.10
2023-04-14T20:22:40.449Z,8.50
2023-04-14T20:25:05.389Z,8.30
2023-04-14T20:27:29.319Z,8.10
2023-04-14T20:29:52.785Z,8.30
2023-04-14T20:32:16.323Z,9.00
2023-04-14T20:34:39.995Z,8.40
2023-04-14T20:37:03.511Z,8.60
2023-04-14T20:39:27.022Z,8.90
2023-04-14T20:41:51.057Z,8.20
2023-04-14T20:44:15.334Z,8.20
2023-04-14T20:46:41.825Z,8.90
2023-04-14T20:49:05.525Z,8.60
2023-04-14T20:51:31.572Z,8.60
2023-04-14T20:53:55.551Z,8.40
2023-04-14T20:56:19.062Z,8.40
2023-04-14T20:58:43.184Z,8.20
2023-04-14T21:01:06.959Z,8.60
2023-04-14T21:03:33.786Z,8.80
2023-04-14T21:05:57.420Z,8.70
2023-04-14T21:08:30.978Z,8.90
2023-04-14T21:11:18.506Z,8.20
2023-04-14T21:15:29.969Z,8.30
2023-04-14T21:16:44.520Z,9.00
2023-04-14T21:19:27.797Z,9.00
2023-04-14T21:21:51.399Z,9.60
2023-04-14T21:24:24.512Z,8.60
2023-04-14T21:27:08.433Z,9.20
2023-04-14T21:29:52.080Z,8.50
2023-04-14T21:32:18.701Z,9.00
2023-04-14T21:34:42.368Z,9.10
2023-04-14T21:37:06.533Z,8.90
2023-04-14T21:39:32.456Z,9.00
2023-04-14T21:41:57.134Z,9.30
2023-04-14T21:44:21.181Z,8.70
2023-04-14T21:46:44.607Z,9.00
2023-04-14T21:49:08.153Z,9.20
2023-04-14T21:51:31.656Z,9.30
2023-04-14T21:53:55.329Z,9.30
2023-04-14T21:56:18.715Z,9.60
2023-04-14T21:58:42.108Z,9.50
2023-04-14T22:01:06.737Z,9.20
2023-04-14T22:03:31.801Z,10.00
2023-04-14T22:05:55.482Z,9.20
2023-04-14T22:08:19.001Z,10.50
2023-04-14T22:10:42.629Z,10.10
2023-04-14T22:13:06.012Z,11.20
2023-04-14T22:15:30.004Z,9.70
2023-04-14T22:17:53.603Z,9.70
2023-04-14T22:20:17.684Z,10.30
2023-04-14T22:22:41.740Z,10.00
2023-04-14T22:25:06.993Z,9.60
2023-04-14T22:27:30.741Z,9.80
2023-04-14T22:29:54.293Z,9.50
2023-04-14T22:32:17.725Z,10.10
2023-04-14T22:34:41.873Z,9.30
2023-04-14T22:37:06.723Z,10.20
2023-04-14T22:39:30.377Z,9.50
2023-04-14T22:41:53.798Z,9.60
2023-04-14T22:44:18.609Z,9.60
2023-04-14T22:46:42.109Z,9.50
2023-04-14T22:49:05.797Z,9.30
2023-04-14T22:51:29.571Z,9.20
2023-04-14T22:53:53.187Z,9.50
2023-04-14T22:56:16.584Z,9.60
2023-04-14T22:58:40.154Z,9.90
2023-04-14T23:01:12.073Z,9.10
2023-04-14T23:03:39.446Z,10.20
2023-04-14T23:06:03.265Z,9.90
2023-04-14T23:08:26.735Z,9.50
2023-04-14T23:10:50.162Z,9.40
2023-04-14T23:13:13.448Z,9.90
2023-04-14T23:15:37.004Z,9.80
2023-04-14T23:18:08.714Z,9.40
2023-04-14T23:20:32.365Z,10.20
2023-04-14T23:22:55.879Z,9.80
2023-04-14T23:25:22.312Z,9.70
2023-04-14T23:27:48.714Z,9.80
2023-04-14T23:30:13.530Z,9.30
2023-04-14T23:32:37.172Z,9.40
2023-04-14T23:35:01.083Z,8.80
2023-04-14T23:37:33.758Z,9.90
2023-04-14T23:39:57.583Z,10.30
2023-04-14T23:42:25.705Z,9.90
2023-04-14T23:44:49.298Z,9.90
2023-04-14T23:47:12.925Z,9.60
2023-04-14T23:49:36.655Z,10.10
2023-04-14T23:52:00.430Z,10.90
2023-04-14T23:54:24.323Z,10.10
2023-04-14T23:56:48.264Z,9.90
2023-04-14T23:59:11.908Z,10.60
